createdAt,value
2022-10-13T00:02:19.673Z,12.30
2022-10-13T00:04:52.802Z,14.18
2022-10-13T00:07:25.366Z,14.05
2022-10-13T00:09:58.248Z,12.82
2022-10-13T00:12:31.687Z,13.70
2022-10-13T00:15:05.504Z,12.63
2022-10-13T00:17:38.236Z,14.07
2022-10-13T00:20:11.609Z,13.60
2022-10-13T00:22:44.146Z,14.32
2022-10-13T00:25:17.083Z,14.23
2022-10-13T00:27:52.257Z,13.40
2022-10-13T00:30:26.563Z,13.90
2022-10-13T00:32:58.983Z,13.40
2022-10-13T00:35:31.811Z,14.43
2022-10-13T00:38:04.355Z,14.38
2022-10-13T00:40:50.403Z,13.60
2022-10-13T00:43:24.230Z,12.85
2022-10-13T00:45:58.242Z,13.35
2022-10-13T00:48:31.359Z,12.27
2022-10-13T00:51:05.191Z,12.68
2022-10-13T00:53:39.074Z,13.13
2022-10-13T00:56:14.842Z,12.80
2022-10-13T00:58:49.716Z,12.53
2022-10-13T01:01:23.278Z,12.20
2022-10-13T01:03:56.066Z,11.93
2022-10-13T01:06:28.919Z,12.77
2022-10-13T01:09:01.651Z,12.88
2022-10-13T01:11:41.705Z,12.35
2022-10-13T01:14:20.177Z,12.48
2022-10-13T01:17:01.671Z,13.45
2022-10-13T01:19:43.179Z,14.30
2022-10-13T01:22:25.397Z,14.50
2022-10-13T01:25:18.191Z,14.00
2022-10-13T01:28:05.814Z,14.23
2022-10-13T01:30:42.726Z,14.43
2022-10-13T01:33:18.440Z,14.50
2022-10-13T01:36:10.228Z,14.50
2022-10-13T01:38:57.513Z,12.73
2022-10-13T01:41:34.859Z,12.07
2022-10-13T01:44:32.459Z,13.35
2022-10-13T01:47:06.453Z,12.45
2022-10-13T01:49:39.576Z,12.77
2022-10-13T01:52:15.440Z,13.30
2022-10-13T01:54:52.062Z,12.13
2022-10-13T01:57:43.482Z,12.73
2022-10-13T02:00:18.640Z,12.50
2022-10-13T02:03:13.611Z,12.43
2022-10-13T02:06:05.326Z,12.20
2022-10-13T02:08:48.507Z,12.13
2022-10-13T02:11:23.740Z,13.50
2022-10-13T02:14:13.115Z,13.85
2022-10-13T02:16:47.469Z,13.52
2022-10-13T02:19:20.512Z,12.85
2022-10-13T02:21:53.773Z,13.20
2022-10-13T02:24:26.736Z,11.82
2022-10-13T02:26:59.629Z,13.13
2022-10-13T02:29:32.495Z,14.05
2022-10-13T02:32:05.340Z,16.20
2022-10-13T02:34:37.821Z,15.50
2022-10-13T02:37:11.578Z,15.60
2022-10-13T02:39:44.301Z,14.95
2022-10-13T02:42:17.626Z,13.13
2022-10-13T02:44:50.380Z,13.13
2022-10-13T02:47:23.284Z,14.25
2022-10-13T02:49:57.062Z,12.82
2022-10-13T02:52:30.168Z,14.13
2022-10-13T02:55:02.702Z,13.15
2022-10-13T02:57:35.818Z,15.65
2022-10-13T03:00:08.936Z,15.85
2022-10-13T03:02:42.169Z,17.53
2022-10-13T03:05:14.833Z,18.05
2022-10-13T03:07:47.613Z,17.45
2022-10-13T03:10:21.778Z,17.25
2022-10-13T03:12:57.033Z,18.60
2022-10-13T03:15:29.709Z,17.67
2022-10-13T03:18:05.021Z,18.15
2022-10-13T03:20:37.717Z,18.45
2022-10-13T03:23:11.776Z,19.60
2022-10-13T03:25:44.437Z,18.97
2022-10-13T03:28:17.580Z,18.90
2022-10-13T03:30:51.568Z,16.90
2022-10-13T03:33:24.392Z,13.68
2022-10-13T03:36:02.636Z,12.95
2022-10-13T03:38:35.944Z,15.80
2022-10-13T03:41:09.922Z,13.70
2022-10-13T03:43:43.596Z,14.32
2022-10-13T03:46:17.708Z,13.90
2022-10-13T03:48:51.364Z,12.85
2022-10-13T03:51:24.170Z,13.48
2022-10-13T03:53:57.056Z,13.13
2022-10-13T03:56:29.544Z,14.00
2022-10-13T03:59:05.364Z,13.45
2022-10-13T04:01:37.961Z,14.43
2022-10-13T04:04:11.558Z,13.45
2022-10-13T04:06:47.403Z,13.73
2022-10-13T04:09:20.277Z,13.48
2022-10-13T04:11:53.072Z,13.97
2022-10-13T04:14:25.900Z,12.85
2022-10-13T04:17:03.549Z,13.30
2022-10-13T04:19:36.547Z,12.98
2022-10-13T04:22:11.015Z,13.00
2022-10-13T04:24:43.760Z,13.73
2022-10-13T04:27:17.451Z,13.90
2022-10-13T04:29:50.441Z,13.23
2022-10-13T04:32:23.066Z,14.48
2022-10-13T04:34:55.926Z,14.82
2022-10-13T04:37:28.323Z,14.30
2022-10-13T04:40:01.144Z,14.13
2022-10-13T04:42:34.533Z,14.35
2022-10-13T04:45:07.724Z,13.97
2022-10-13T04:47:40.318Z,15.35
2022-10-13T04:50:13.633Z,15.18
2022-10-13T04:52:46.114Z,15.45
2022-10-13T04:55:19.117Z,16.27
2022-10-13T04:57:51.550Z,15.70
2022-10-13T05:00:24.513Z,14.68
2022-10-13T05:02:57.186Z,15.75
2022-10-13T05:05:30.011Z,16.02
2022-10-13T05:08:02.625Z,15.40
2022-10-13T05:10:35.932Z,14.68
2022-10-13T05:13:08.455Z,15.20
2022-10-13T05:15:41.695Z,15.25
2022-10-13T05:18:14.157Z,14.80
2022-10-13T05:20:47.591Z,15.30
2022-10-13T05:23:20.103Z,14.50
2022-10-13T05:25:52.935Z,14.35
2022-10-13T05:28:27.444Z,14.60
2022-10-13T05:31:13.710Z,14.70
2022-10-13T05:33:47.460Z,15.05
2022-10-13T05:36:27.827Z,14.75
2022-10-13T05:39:01.954Z,14.93
2022-10-13T05:41:35.221Z,15.25
2022-10-13T05:44:11.363Z,15.10
2022-10-13T05:46:50.104Z,15.52
2022-10-13T05:49:22.706Z,15.00
2022-10-13T05:52:01.901Z,16.05
2022-10-13T05:54:36.858Z,16.23
2022-10-13T05:57:12.377Z,15.75
2022-10-13T05:59:49.021Z,15.77
2022-10-13T06:02:23.323Z,16.50
2022-10-13T06:04:57.192Z,14.57
2022-10-13T06:07:30.810Z,15.30
2022-10-13T06:10:03.380Z,16.88
2022-10-13T06:12:36.221Z,15.48
2022-10-13T06:15:09.032Z,16.75
2022-10-13T06:17:41.876Z,17.08
2022-10-13T06:20:14.570Z,17.33
2022-10-13T06:22:48.853Z,17.58
2022-10-13T06:25:21.642Z,17.75
2022-10-13T06:27:54.622Z,31.75
2022-10-13T06:30:27.735Z,24.60
2022-10-13T06:33:00.791Z,26.08
2022-10-13T06:35:33.495Z,20.42
2022-10-13T06:38:06.218Z,18.15
2022-10-13T06:40:38.907Z,18.25
2022-10-13T06:43:11.809Z,18.65
2022-10-13T06:45:47.154Z,18.38
2022-10-13T06:48:19.935Z,17.88
2022-10-13T06:50:52.549Z,17.77
2022-10-13T06:53:25.422Z,18.73
2022-10-13T06:56:01.770Z,19.10
2022-10-13T06:58:35.692Z,19.63
2022-10-13T07:01:08.371Z,18.63
2022-10-13T07:03:41.443Z,20.03
2022-10-13T07:06:13.991Z,19.67
2022-10-13T07:08:47.031Z,17.63
2022-10-13T07:11:20.873Z,18.45
2022-10-13T07:13:57.277Z,20.13
2022-10-13T07:16:29.975Z,18.30
2022-10-13T07:19:03.244Z,19.02
2022-10-13T07:21:36.021Z,19.20
2022-10-13T07:24:11.766Z,19.23
2022-10-13T07:26:46.979Z,18.95
2022-10-13T07:29:19.986Z,18.33
2022-10-13T07:31:52.489Z,18.77
2022-10-13T07:34:25.418Z,18.88
2022-10-13T07:36:58.114Z,19.15
2022-10-13T07:39:31.006Z,19.40
2022-10-13T07:42:03.543Z,18.40
2022-10-13T07:44:36.531Z,19.90
2022-10-13T07:47:09.088Z,18.75
2022-10-13T07:49:42.277Z,19.38
2022-10-13T07:52:14.836Z,19.20
2022-10-13T07:54:47.698Z,19.35
2022-10-13T07:57:20.277Z,18.05
2022-10-13T07:59:53.498Z,20.27
2022-10-13T08:02:26.790Z,20.55
2022-10-13T08:04:59.617Z,18.10
2022-10-13T08:07:32.154Z,18.70
2022-10-13T08:10:05.520Z,18.08
2022-10-13T08:12:38.168Z,19.50
2022-10-13T08:15:12.775Z,18.10
2022-10-13T08:17:45.392Z,17.88
2022-10-13T08:20:18.285Z,17.80
2022-10-13T08:22:51.058Z,17.27
2022-10-13T08:25:24.064Z,17.08
2022-10-13T08:28:00.316Z,16.42
2022-10-13T08:30:34.030Z,15.70
2022-10-13T08:33:06.897Z,16.70
2022-10-13T08:35:39.785Z,16.38
2022-10-13T08:38:12.283Z,15.85
2022-10-13T08:40:49.699Z,15.65
2022-10-13T08:43:23.924Z,15.50
2022-10-13T08:45:58.925Z,14.20
2022-10-13T08:48:36.531Z,14.38
2022-10-13T08:51:14.138Z,13.40
2022-10-13T08:53:47.178Z,13.70
2022-10-13T08:56:20.634Z,13.98
2022-10-13T08:58:54.709Z,14.77
2022-10-13T09:01:29.677Z,11.93
2022-10-13T09:04:28.628Z,12.55
2022-10-13T09:07:07.753Z,12.88
2022-10-13T09:09:40.454Z,12.80
2022-10-13T09:12:13.660Z,12.80
2022-10-13T09:14:56.486Z,12.02
2022-10-13T09:17:30.082Z,12.27
2022-10-13T09:20:05.181Z,11.50
2022-10-13T09:22:39.921Z,10.93
2022-10-13T09:25:22.068Z,11.55
2022-10-13T09:27:58.361Z,11.10
2022-10-13T09:30:37.354Z,10.43
2022-10-13T09:33:12.158Z,10.23
2022-10-13T09:35:49.511Z,10.38
2022-10-13T09:38:23.983Z,11.27
2022-10-13T09:41:05.048Z,10.52
2022-10-13T09:43:44.568Z,10.40
2022-10-13T09:46:28.653Z,11.15
2022-10-13T09:49:21.792Z,11.20
2022-10-13T09:51:59.492Z,11.20
2022-10-13T09:54:35.345Z,10.10
2022-10-13T09:57:13.340Z,10.25
2022-10-13T09:59:48.904Z,9.85
2022-10-13T10:02:23.785Z,10.65
2022-10-13T10:05:02.588Z,10.40
2022-10-13T10:07:36.159Z,9.30
2022-10-13T10:10:27.985Z,9.45
2022-10-13T10:13:01.411Z,9.73
2022-10-13T10:15:40.528Z,9.45
2022-10-13T10:18:36.507Z,8.27
2022-10-13T10:21:14.810Z,8.20
2022-10-13T10:23:50.806Z,7.63
2022-10-13T10:26:32.712Z,8.23
2022-10-13T10:29:05.972Z,8.52
2022-10-13T10:31:57.940Z,7.00
2022-10-13T10:34:30.419Z,7.85
2022-10-13T10:37:08.953Z,7.50
2022-10-13T10:40:03.012Z,7.32
2022-10-13T10:42:39.210Z,7.65
2022-10-13T10:45:17.526Z,7.10
2022-10-13T10:47:53.459Z,7.32
2022-10-13T10:50:41.358Z,6.90
2022-10-13T10:53:36.333Z,8.10
2022-10-13T10:56:22.014Z,7.78
2022-10-13T10:59:05.652Z,7.32
2022-10-13T11:01:38.234Z,7.33
2022-10-13T11:04:17.407Z,7.55
2022-10-13T11:06:49.953Z,7.50
2022-10-13T11:09:41.283Z,7.65
2022-10-13T11:12:20.545Z,9.50
2022-10-13T11:14:53.599Z,8.10
2022-10-13T11:17:29.846Z,8.50
2022-10-13T11:20:23.189Z,8.70
2022-10-13T11:22:58.824Z,8.68
2022-10-13T11:25:39.833Z,8.85
2022-10-13T11:28:45.741Z,8.25
2022-10-13T11:31:33.486Z,9.00
2022-10-13T11:34:25.798Z,8.63
2022-10-13T11:37:00.189Z,8.75
2022-10-13T11:39:35.481Z,8.23
2022-10-13T11:42:08.297Z,8.40
2022-10-13T11:44:43.856Z,7.35
2022-10-13T11:47:35.320Z,7.80
2022-10-13T11:50:15.494Z,6.80
2022-10-13T11:52:48.294Z,8.38
2022-10-13T11:55:34.735Z,7.13
2022-10-13T11:58:08.736Z,7.55
2022-10-13T12:00:50.327Z,7.53
2022-10-13T12:03:30.588Z,9.38
2022-10-13T12:06:23.491Z,7.57
2022-10-13T12:08:56.413Z,6.55
2022-10-13T12:11:36.892Z,7.80
2022-10-13T12:14:20.714Z,7.15
2022-10-13T12:19:50.242Z,7.68
2022-10-13T12:22:23.065Z,7.20
2022-10-13T12:25:05.289Z,7.30
2022-10-13T12:27:52.717Z,7.88
2022-10-13T12:30:27.035Z,7.70
2022-10-13T12:33:00.203Z,7.10
2022-10-13T12:35:34.689Z,6.82
2022-10-13T12:38:07.809Z,6.53
2022-10-13T12:40:41.143Z,6.97
2022-10-13T12:43:16.998Z,6.57
2022-10-13T12:45:53.969Z,6.65
2022-10-13T12:48:30.398Z,7.38
2022-10-13T12:51:17.092Z,6.67
2022-10-13T12:53:49.786Z,6.95
2022-10-13T12:56:26.816Z,7.05
2022-10-13T12:58:59.453Z,6.87
2022-10-13T13:01:35.520Z,6.35
2022-10-13T13:04:23.033Z,6.25
2022-10-13T13:07:01.878Z,6.32
2022-10-13T13:09:35.927Z,5.88
2022-10-13T13:12:08.871Z,5.80
2022-10-13T13:14:43.055Z,5.72
2022-10-13T13:17:38.436Z,5.78
2022-10-13T13:20:22.557Z,5.25
2022-10-13T13:22:55.643Z,5.50
2022-10-13T13:25:28.388Z,5.32
2022-10-13T13:28:04.108Z,6.10
2022-10-13T13:30:36.968Z,6.05
2022-10-13T13:36:05.007Z,5.88
2022-10-13T13:38:38.171Z,5.13
2022-10-13T13:41:11.341Z,5.75
2022-10-13T13:43:44.289Z,5.65
2022-10-13T13:46:18.315Z,6.00
2022-10-13T13:48:51.742Z,6.35
2022-10-13T13:51:24.660Z,5.47
2022-10-13T13:53:57.763Z,5.53
2022-10-13T13:56:30.311Z,5.85
2022-10-13T13:59:03.149Z,5.72
2022-10-13T14:01:35.782Z,5.77
2022-10-13T14:04:08.722Z,5.63
2022-10-13T14:06:41.300Z,6.03
2022-10-13T14:09:14.172Z,6.13
2022-10-13T14:11:46.625Z,6.43
2022-10-13T14:14:19.479Z,5.53
2022-10-13T14:16:52.094Z,5.82
2022-10-13T14:19:25.019Z,6.00
2022-10-13T14:21:57.697Z,6.40
2022-10-13T14:24:30.611Z,6.50
2022-10-13T14:27:03.340Z,6.78
2022-10-13T14:29:36.517Z,6.47
2022-10-13T14:32:09.015Z,6.63
2022-10-13T14:34:41.981Z,6.60
2022-10-13T14:37:14.934Z,6.70
2022-10-13T14:43:09.039Z,7.07
2022-10-13T14:45:43.145Z,6.97
2022-10-13T14:48:16.487Z,7.68
2022-10-13T14:50:49.797Z,7.25
2022-10-13T14:53:24.864Z,6.93
2022-10-13T14:55:57.740Z,8.38
2022-10-13T14:58:30.683Z,8.65
2022-10-13T15:01:04.058Z,7.68
2022-10-13T15:03:38.601Z,7.22
2022-10-13T15:06:23.046Z,8.57
2022-10-13T15:08:55.907Z,8.05
2022-10-13T15:11:29.676Z,7.70
2022-10-13T15:14:02.267Z,8.57
2022-10-13T15:16:35.457Z,8.47
2022-10-13T15:19:08.034Z,7.85
2022-10-13T15:21:41.456Z,8.68
2022-10-13T15:24:13.952Z,7.85
2022-10-13T15:26:48.255Z,8.50
2022-10-13T15:29:20.853Z,7.90
2022-10-13T15:32:06.844Z,8.35
2022-10-13T15:34:40.515Z,8.27
2022-10-13T15:37:13.390Z,8.05
2022-10-13T15:39:46.063Z,7.90
2022-10-13T15:42:24.138Z,8.20
2022-10-13T15:45:09.242Z,8.43
2022-10-13T15:47:43.109Z,8.57
2022-10-13T15:50:15.674Z,8.63
2022-10-13T15:52:48.624Z,9.77
2022-10-13T15:55:21.182Z,9.43
2022-10-13T15:57:54.150Z,9.88
2022-10-13T16:00:26.737Z,10.23
2022-10-13T16:02:59.994Z,11.75
2022-10-13T16:05:32.651Z,10.70
2022-10-13T16:08:05.599Z,9.95
2022-10-13T16:10:41.828Z,9.05
2022-10-13T16:13:15.697Z,8.90
2022-10-13T16:15:57.960Z,8.50
2022-10-13T16:18:31.494Z,7.87
2022-10-13T16:21:13.278Z,8.82
2022-10-13T16:23:48.931Z,8.87
2022-10-13T16:26:22.641Z,10.02
2022-10-13T16:28:56.464Z,10.53
2022-10-13T16:31:29.414Z,9.77
2022-10-13T16:34:02.268Z,9.57
2022-10-13T16:36:34.773Z,11.98
2022-10-13T16:39:07.879Z,11.10
2022-10-13T16:41:44.757Z,10.38
2022-10-13T16:44:17.820Z,10.55
2022-10-13T16:46:52.472Z,10.20
2022-10-13T16:49:25.617Z,10.07
2022-10-13T16:51:59.221Z,11.40
2022-10-13T16:54:33.216Z,10.02
2022-10-13T16:57:06.298Z,11.02
2022-10-13T16:59:39.225Z,10.13
2022-10-13T17:02:15.629Z,10.57
2022-10-13T17:04:48.823Z,10.60
2022-10-13T17:07:21.595Z,10.45
2022-10-13T17:09:55.105Z,11.35
2022-10-13T17:12:27.552Z,12.35
2022-10-13T17:15:00.542Z,16.58
2022-10-13T17:17:33.268Z,23.50
2022-10-13T17:20:06.430Z,23.23
2022-10-13T17:22:41.003Z,13.98
2022-10-13T17:25:13.855Z,14.38
2022-10-13T17:27:46.371Z,13.83
2022-10-13T17:30:19.388Z,13.68
2022-10-13T17:32:52.509Z,11.57
2022-10-13T17:35:25.342Z,10.05
2022-10-13T17:37:57.917Z,10.47
2022-10-13T17:40:33.535Z,13.87
2022-10-13T17:43:06.063Z,13.07
2022-10-13T17:45:38.880Z,10.77
2022-10-13T17:48:14.354Z,11.30
2022-10-13T17:50:47.601Z,10.93
2022-10-13T17:53:20.322Z,11.15
2022-10-13T17:55:55.044Z,11.27
2022-10-13T17:58:28.574Z,11.55
2022-10-13T18:01:13.477Z,12.52
2022-10-13T18:03:48.265Z,12.30
2022-10-13T18:06:23.514Z,12.75
2022-10-13T18:08:56.456Z,12.63
2022-10-13T18:11:29.987Z,12.77
2022-10-13T18:14:04.341Z,16.38
2022-10-13T18:16:37.281Z,21.05
2022-10-13T18:19:09.894Z,20.17
2022-10-13T18:21:42.876Z,17.63
2022-10-13T18:24:15.441Z,13.18
2022-10-13T18:26:48.235Z,11.35
2022-10-13T18:29:21.178Z,10.40
2022-10-13T18:31:54.968Z,11.02
2022-10-13T18:34:27.426Z,10.45
2022-10-13T18:37:00.267Z,11.03
2022-10-13T18:39:34.812Z,11.55
2022-10-13T18:42:08.283Z,10.40
2022-10-13T18:44:41.561Z,10.55
2022-10-13T18:47:14.620Z,9.50
2022-10-13T18:49:47.149Z,9.82
2022-10-13T18:52:20.086Z,9.80
2022-10-13T18:54:53.144Z,9.90
2022-10-13T18:57:27.202Z,11.03
2022-10-13T18:59:59.754Z,10.23
2022-10-13T19:02:35.521Z,11.00
2022-10-13T19:05:08.665Z,11.63
2022-10-13T19:07:41.611Z,11.20
2022-10-13T19:10:15.305Z,11.52
2022-10-13T19:12:49.296Z,13.30
2022-10-13T19:15:23.411Z,17.20
2022-10-13T19:17:56.460Z,19.23
2022-10-13T19:20:29.068Z,14.00
2022-10-13T19:23:04.025Z,14.60
2022-10-13T19:25:41.198Z,12.82
2022-10-13T19:28:14.088Z,13.20
2022-10-13T19:30:46.669Z,11.93
2022-10-13T19:33:20.486Z,11.32
2022-10-13T19:35:54.402Z,15.48
2022-10-13T19:38:27.633Z,16.85
2022-10-13T19:41:02.087Z,12.38
2022-10-13T19:43:35.014Z,13.05
2022-10-13T19:46:08.014Z,13.77
2022-10-13T19:48:41.079Z,14.75
2022-10-13T19:51:14.192Z,14.32
2022-10-13T19:53:47.090Z,12.73
2022-10-13T19:56:24.639Z,12.88
2022-10-13T19:58:58.149Z,11.77
2022-10-13T20:01:31.329Z,12.67
2022-10-13T20:04:05.665Z,12.68
2022-10-13T20:06:39.307Z,11.38
2022-10-13T20:09:12.425Z,11.63
2022-10-13T20:11:46.358Z,11.77
2022-10-13T20:14:19.587Z,12.82
2022-10-13T20:16:53.340Z,12.80
2022-10-13T20:19:27.324Z,12.93
2022-10-13T20:22:01.930Z,13.18
2022-10-13T20:24:35.036Z,13.13
2022-10-13T20:27:08.429Z,13.40
2022-10-13T20:29:42.337Z,12.63
2022-10-13T20:32:15.736Z,12.10
2022-10-13T20:34:48.669Z,13.73
2022-10-13T20:37:22.338Z,12.15
2022-10-13T20:39:57.468Z,15.30
2022-10-13T20:42:29.997Z,14.13
2022-10-13T20:45:02.836Z,15.88
2022-10-13T20:47:35.420Z,14.95
2022-10-13T20:50:08.886Z,14.75
2022-10-13T20:52:41.645Z,13.93
2022-10-13T20:55:14.650Z,14.23
2022-10-13T20:57:50.790Z,13.98
2022-10-13T21:00:23.864Z,13.43
2022-10-13T21:02:59.934Z,14.10
2022-10-13T21:05:35.463Z,14.18
2022-10-13T21:08:08.125Z,12.57
2022-10-13T21:10:41.158Z,12.77
2022-10-13T21:13:15.790Z,12.13
2022-10-13T21:15:49.142Z,12.85
2022-10-13T21:18:27.348Z,12.82
2022-10-13T21:21:07.009Z,13.20
2022-10-13T21:23:40.477Z,13.82
2022-10-13T21:26:20.392Z,14.57
2022-10-13T21:28:54.227Z,14.85
2022-10-13T21:31:27.989Z,16.70
2022-10-13T21:34:02.109Z,15.90
2022-10-13T21:36:35.116Z,15.50
2022-10-13T21:39:08.230Z,14.65
2022-10-13T21:41:42.133Z,15.27
2022-10-13T21:44:15.223Z,14.80
2022-10-13T21:46:48.451Z,13.95
2022-10-13T21:49:21.331Z,14.13
2022-10-13T21:51:54.188Z,13.23
2022-10-13T21:54:26.668Z,13.70
2022-10-13T21:56:59.604Z,13.57
2022-10-13T21:59:32.437Z,13.75
2022-10-13T22:02:05.247Z,12.30
2022-10-13T22:04:37.766Z,13.10
2022-10-13T22:07:10.635Z,12.27
2022-10-13T22:09:43.422Z,13.70
2022-10-13T22:12:17.383Z,12.55
2022-10-13T22:14:50.115Z,13.75
2022-10-13T22:17:26.085Z,13.93
2022-10-13T22:19:58.682Z,13.13
2022-10-13T22:22:31.476Z,13.97
2022-10-13T22:25:04.212Z,13.38
2022-10-13T22:27:38.393Z,14.05
2022-10-13T22:30:11.224Z,12.52
2022-10-13T22:32:45.390Z,13.48
2022-10-13T22:35:17.902Z,14.45
2022-10-13T22:37:50.909Z,14.18
2022-10-13T22:40:25.754Z,14.15
2022-10-13T22:42:58.691Z,14.10
2022-10-13T22:45:33.405Z,13.85
2022-10-13T22:48:06.413Z,14.02
2022-10-13T22:50:38.927Z,14.93
2022-10-13T22:53:11.984Z,13.95
2022-10-13T22:55:44.848Z,13.40
2022-10-13T22:58:17.687Z,14.23
2022-10-13T23:00:51.892Z,15.33
2022-10-13T23:03:24.834Z,17.50
2022-10-13T23:05:59.428Z,19.50
2022-10-13T23:08:32.851Z,18.30
2022-10-13T23:11:05.420Z,16.65
2022-10-13T23:13:38.630Z,20.27
2022-10-13T23:16:14.595Z,22.42
2022-10-13T23:18:51.324Z,20.63
2022-10-13T23:21:30.678Z,17.75
2022-10-13T23:24:05.299Z,17.73
2022-10-13T23:26:38.118Z,15.03
2022-10-13T23:29:11.489Z,16.90
2022-10-13T23:31:44.102Z,18.75
2022-10-13T23:34:17.177Z,16.75
2022-10-13T23:36:50.113Z,15.05
2022-10-13T23:39:24.439Z,14.23
2022-10-13T23:41:57.312Z,13.43
2022-10-13T23:44:30.587Z,13.75
2022-10-13T23:47:03.148Z,14.02
2022-10-13T23:49:36.573Z,15.27
2022-10-13T23:52:11.117Z,14.65
2022-10-13T23:54:44.100Z,15.30
2022-10-13T23:57:17.025Z,13.70
2022-10-13T23:59:49.968Z,14.40
